ETD1CB OMAA-VABB
Flight info
| Callsign | ETD1CB |
|---|---|
| Flight time | 2h 30m |
| Altitude | 37000 |
| Route | KANIP N318 GEVED N881 AMBOS M700 PARAR N571 SUGID |
| Aircraft | A21N/M-SDE3FGHIRWY/LB1 |
Departure
| Time | 2026-05-04 10:19 |
|---|---|
| Airport | Zayed International Airport (OMAA) |
Arrival
| Time | 2026-05-04 12:50 |
|---|---|
| Airport | Chhatrapati Shivaji Maharaj International Airport (VABB) |
| Time | Latitude | Longitude | Altitude | Speed | Heading |
|---|---|---|---|---|---|
| 2026-05-04 09:21 | 24.45184 | 54.64526 | 92 ft | 0 kts | 188° |
| 2026-05-04 10:04 | 24.45271 | 54.64523 | 92 ft | 2 kts | 153° |
| 2026-05-04 10:04 | 24.45284 | 54.64514 | 92 ft | 2 kts | 143° |
| 2026-05-04 10:04 | 24.45295 | 54.64504 | 92 ft | 2 kts | 134° |
| 2026-05-04 10:04 | 24.45304 | 54.64491 | 92 ft | 2 kts | 124° |
| 2026-05-04 10:05 | 24.45311 | 54.64479 | 92 ft | 0 kts | 116° |
| 2026-05-04 10:05 | 24.45313 | 54.64474 | 92 ft | 0 kts | 114° |
| 2026-05-04 10:08 | 24.45278 | 54.64655 | 92 ft | 8 kts | 101° |
| 2026-05-04 10:08 | 24.45264 | 54.64728 | 92 ft | 10 kts | 104° |
| 2026-05-04 10:08 | 24.45244 | 54.64810 | 92 ft | 11 kts | 105° |
| 2026-05-04 10:08 | 24.45222 | 54.64901 | 92 ft | 13 kts | 105° |
| 2026-05-04 10:09 | 24.45184 | 54.64996 | 92 ft | 13 kts | 126° |
| 2026-05-04 10:09 | 24.45122 | 54.65082 | 92 ft | 14 kts | 128° |
| 2026-05-04 10:09 | 24.45040 | 54.65140 | 92 ft | 15 kts | 200° |
| 2026-05-04 10:09 | 24.44953 | 54.65071 | 92 ft | 16 kts | 218° |
| 2026-05-04 10:10 | 24.44872 | 54.65002 | 92 ft | 16 kts | 218° |
| 2026-05-04 10:10 | 24.44771 | 54.64917 | 92 ft | 17 kts | 217° |
| 2026-05-04 10:10 | 24.44673 | 54.64834 | 92 ft | 17 kts | 218° |
| 2026-05-04 10:10 | 24.44572 | 54.64748 | 92 ft | 18 kts | 218° |
| 2026-05-04 10:11 | 24.44469 | 54.64661 | 92 ft | 19 kts | 218° |
| 2026-05-04 10:11 | 24.44363 | 54.64571 | 92 ft | 19 kts | 218° |
| 2026-05-04 10:11 | 24.44247 | 54.64503 | 92 ft | 19 kts | 166° |
| 2026-05-04 10:11 | 24.44158 | 54.64609 | 92 ft | 19 kts | 127° |
| 2026-05-04 10:12 | 24.44075 | 54.64726 | 92 ft | 19 kts | 128° |
| 2026-05-04 10:12 | 24.43992 | 54.64771 | 92 ft | 14 kts | 198° |
| 2026-05-04 10:12 | 24.43906 | 54.64704 | 92 ft | 15 kts | 218° |
| 2026-05-04 10:12 | 24.43814 | 54.64710 | 92 ft | 15 kts | 128° |
| 2026-05-04 10:13 | 24.43746 | 54.64806 | 92 ft | 16 kts | 128° |
| 2026-05-04 10:13 | 24.43675 | 54.64907 | 92 ft | 16 kts | 128° |
| 2026-05-04 10:13 | 24.43601 | 54.65011 | 92 ft | 17 kts | 128° |
| 2026-05-04 10:13 | 24.43526 | 54.65117 | 92 ft | 17 kts | 128° |
| 2026-05-04 10:14 | 24.43448 | 54.65228 | 92 ft | 18 kts | 128° |
| 2026-05-04 10:14 | 24.43368 | 54.65339 | 92 ft | 18 kts | 128° |
| 2026-05-04 10:16 | 24.42787 | 54.66159 | 92 ft | 19 kts | 128° |
| 2026-05-04 10:16 | 24.42702 | 54.66278 | 92 ft | 20 kts | 128° |
| 2026-05-04 10:16 | 24.42643 | 54.66359 | 92 ft | 20 kts | 128° |
| 2026-05-04 10:16 | 24.42526 | 54.66520 | 92 ft | 20 kts | 129° |
| 2026-05-04 10:17 | 24.42440 | 54.66642 | 92 ft | 20 kts | 128° |
| 2026-05-04 10:17 | 24.42383 | 54.66703 | 92 ft | 10 kts | 160° |
| 2026-05-04 10:19 | 24.43392 | 54.64992 | 93 ft | 171 kts | 308° |
| 2026-05-04 10:19 | 24.44164 | 54.63918 | 592 ft | 178 kts | 309° |
| 2026-05-04 10:19 | 24.44917 | 54.62885 | 1331 ft | 174 kts | 308° |
| 2026-05-04 10:19 | 24.45663 | 54.61838 | 1986 ft | 174 kts | 308° |
| 2026-05-04 10:20 | 24.46166 | 54.61123 | 2222 ft | 181 kts | 308° |
| 2026-05-04 10:20 | 24.47254 | 54.59575 | 2633 ft | 201 kts | 308° |
| 2026-05-04 10:20 | 24.48143 | 54.58316 | 2932 ft | 217 kts | 308° |
| 2026-05-04 10:20 | 24.49123 | 54.56930 | 3180 ft | 238 kts | 308° |
| 2026-05-04 10:21 | 24.50163 | 54.55463 | 3850 ft | 241 kts | 308° |
| 2026-05-04 10:21 | 24.51347 | 54.54178 | 4406 ft | 250 kts | 330° |
| 2026-05-04 10:21 | 24.53108 | 54.53756 | 4738 ft | 271 kts | 5° |
| 2026-05-04 10:21 | 24.54854 | 54.54532 | 5335 ft | 283 kts | 36° |
| 2026-05-04 10:22 | 24.56371 | 54.58476 | 6676 ft | 299 kts | 90° |
| 2026-05-04 10:22 | 24.56265 | 54.60774 | 7329 ft | 303 kts | 92° |
| 2026-05-04 10:22 | 24.56130 | 54.63088 | 7950 ft | 307 kts | 92° |
| 2026-05-04 10:23 | 24.56009 | 54.65463 | 8597 ft | 311 kts | 92° |
| 2026-05-04 10:23 | 24.55909 | 54.67825 | 9216 ft | 315 kts | 91° |
| 2026-05-04 10:25 | 24.52311 | 54.85347 | 12085 ft | 386 kts | 136° |
| 2026-05-04 10:25 | 24.50350 | 54.87373 | 12690 ft | 389 kts | 137° |
| 2026-05-04 10:25 | 24.48354 | 54.89410 | 13256 ft | 392 kts | 137° |
| 2026-05-04 10:25 | 24.46367 | 54.91459 | 13819 ft | 395 kts | 136° |
| 2026-05-04 10:26 | 24.44365 | 54.93544 | 14383 ft | 398 kts | 136° |
| 2026-05-04 10:26 | 24.42354 | 54.95653 | 14938 ft | 401 kts | 136° |
| 2026-05-04 10:26 | 24.40339 | 54.97772 | 15484 ft | 404 kts | 136° |
| 2026-05-04 10:26 | 24.38299 | 54.99919 | 16027 ft | 407 kts | 136° |
| 2026-05-04 10:27 | 24.36221 | 55.02105 | 16551 ft | 410 kts | 136° |
| 2026-05-04 10:27 | 24.34201 | 55.04274 | 17060 ft | 413 kts | 133° |
| 2026-05-04 10:27 | 24.33543 | 55.05056 | 17234 ft | 414 kts | 131° |
| 2026-05-04 10:27 | 24.30673 | 55.09335 | 18101 ft | 418 kts | 120° |
| 2026-05-04 10:28 | 24.30187 | 55.10236 | 18270 ft | 419 kts | 119° |
| 2026-05-04 10:28 | 24.28758 | 55.13017 | 18787 ft | 421 kts | 118° |
| 2026-05-04 10:28 | 24.27327 | 55.15859 | 19297 ft | 424 kts | 118° |
| 2026-05-04 10:28 | 24.26367 | 55.17761 | 19626 ft | 426 kts | 118° |
| 2026-05-04 10:29 | 24.20675 | 55.28884 | 21522 ft | 436 kts | 119° |
| 2026-05-04 10:29 | 24.19189 | 55.31770 | 21986 ft | 438 kts | 118° |
| 2026-05-04 10:30 | 24.16521 | 55.37743 | 22894 ft | 443 kts | 112° |
| 2026-05-04 10:30 | 24.15321 | 55.40850 | 23344 ft | 445 kts | 112° |
| 2026-05-04 10:30 | 24.14124 | 55.43985 | 23785 ft | 448 kts | 112° |
| 2026-05-04 10:31 | 24.12917 | 55.47144 | 24242 ft | 449 kts | 112° |
| 2026-05-04 10:31 | 24.11698 | 55.50319 | 24639 ft | 452 kts | 112° |
| 2026-05-04 10:32 | 24.03811 | 55.69635 | 26641 ft | 473 kts | 118° |
| 2026-05-04 10:33 | 24.02295 | 55.72823 | 26935 ft | 476 kts | 118° |
| 2026-05-04 10:33 | 24.00740 | 55.76080 | 27226 ft | 479 kts | 118° |
| 2026-05-04 10:33 | 23.99195 | 55.79315 | 27507 ft | 482 kts | 118° |
| 2026-05-04 10:33 | 23.97645 | 55.82558 | 27781 ft | 485 kts | 118° |
| 2026-05-04 10:34 | 23.96066 | 55.85861 | 28108 ft | 487 kts | 118° |
| 2026-05-04 10:34 | 23.94503 | 55.89131 | 28478 ft | 487 kts | 118° |
| 2026-05-04 10:34 | 23.92947 | 55.92385 | 28841 ft | 487 kts | 118° |
| 2026-05-04 10:34 | 23.91881 | 55.94611 | 29079 ft | 487 kts | 118° |
| 2026-05-04 10:35 | 23.89784 | 55.98988 | 29526 ft | 488 kts | 119° |
| 2026-05-04 10:35 | 23.88195 | 56.02283 | 29851 ft | 489 kts | 119° |
| 2026-05-04 10:35 | 23.86608 | 56.05565 | 30174 ft | 489 kts | 119° |
| 2026-05-04 10:35 | 23.85032 | 56.08834 | 30511 ft | 489 kts | 119° |
| 2026-05-04 10:36 | 23.83435 | 56.12152 | 30881 ft | 488 kts | 119° |
| 2026-05-04 10:36 | 23.81865 | 56.15418 | 31235 ft | 487 kts | 119° |
| 2026-05-04 10:36 | 23.80305 | 56.18664 | 31574 ft | 486 kts | 119° |
| 2026-05-04 10:36 | 23.78714 | 56.21972 | 31919 ft | 485 kts | 119° |
| 2026-05-04 10:37 | 23.77153 | 56.25215 | 32250 ft | 484 kts | 119° |
| 2026-05-04 10:37 | 23.75596 | 56.28449 | 32556 ft | 484 kts | 120° |
| 2026-05-04 10:37 | 23.74021 | 56.31720 | 32850 ft | 483 kts | 120° |
| 2026-05-04 10:37 | 23.72471 | 56.34933 | 33156 ft | 482 kts | 120° |
| 2026-05-04 10:39 | 23.63144 | 56.54233 | 34757 ft | 477 kts | 120° |
| 2026-05-04 10:39 | 23.61584 | 56.57454 | 35000 ft | 476 kts | 120° |
| 2026-05-04 10:39 | 23.60037 | 56.60645 | 35187 ft | 477 kts | 120° |
| 2026-05-04 10:40 | 23.58500 | 56.63817 | 35346 ft | 478 kts | 119° |
| 2026-05-04 10:40 | 23.56957 | 56.67002 | 35500 ft | 478 kts | 120° |
| 2026-05-04 10:40 | 23.55405 | 56.70213 | 35664 ft | 478 kts | 120° |
| 2026-05-04 10:40 | 23.54009 | 56.73100 | 35803 ft | 479 kts | 120° |
| 2026-05-04 10:41 | 23.52518 | 56.76177 | 35934 ft | 479 kts | 120° |
| 2026-05-04 10:41 | 23.50941 | 56.79424 | 36067 ft | 480 kts | 120° |
| 2026-05-04 10:41 | 23.49393 | 56.82604 | 36207 ft | 480 kts | 120° |
| 2026-05-04 10:41 | 23.47830 | 56.85815 | 36343 ft | 480 kts | 120° |
| 2026-05-04 10:42 | 23.46255 | 56.89046 | 36462 ft | 480 kts | 120° |
| 2026-05-04 10:42 | 23.44699 | 56.92236 | 36584 ft | 481 kts | 119° |
| 2026-05-04 10:42 | 23.43129 | 56.95452 | 36699 ft | 481 kts | 119° |
| 2026-05-04 10:43 | 23.39964 | 57.01931 | 36713 ft | 485 kts | 119° |
| 2026-05-04 10:45 | 23.27836 | 57.28306 | 36697 ft | 490 kts | 117° |
| 2026-05-04 10:45 | 23.24805 | 57.34979 | 36696 ft | 489 kts | 117° |
| 2026-05-04 10:46 | 23.21798 | 57.41585 | 36696 ft | 489 kts | 117° |
| 2026-05-04 10:46 | 23.18779 | 57.48212 | 36696 ft | 489 kts | 117° |
| 2026-05-04 10:47 | 23.15761 | 57.54825 | 36696 ft | 489 kts | 117° |
| 2026-05-04 10:47 | 23.12739 | 57.61439 | 36696 ft | 489 kts | 117° |
| 2026-05-04 10:49 | 23.02326 | 57.88573 | 36693 ft | 489 kts | 99° |
| 2026-05-04 10:50 | 23.01747 | 57.95899 | 36694 ft | 488 kts | 90° |
| 2026-05-04 10:52 | 23.01813 | 58.25487 | 36696 ft | 489 kts | 89° |
| 2026-05-04 10:52 | 23.01799 | 58.32801 | 36696 ft | 489 kts | 89° |
| 2026-05-04 10:54 | 23.02637 | 58.62328 | 36696 ft | 488 kts | 86° |
| 2026-05-04 10:56 | 23.03576 | 58.91899 | 36696 ft | 488 kts | 86° |
| 2026-05-04 10:57 | 23.03802 | 58.99274 | 36695 ft | 488 kts | 86° |
| 2026-05-04 10:57 | 23.04027 | 59.06663 | 36696 ft | 489 kts | 86° |
| 2026-05-04 10:58 | 23.04247 | 59.14085 | 36696 ft | 489 kts | 86° |
| 2026-05-04 10:58 | 23.04459 | 59.21456 | 36696 ft | 489 kts | 86° |
| 2026-05-04 10:59 | 23.04666 | 59.28821 | 36696 ft | 489 kts | 86° |
| 2026-05-04 10:59 | 23.04872 | 59.36240 | 36696 ft | 489 kts | 86° |
| 2026-05-04 11:00 | 23.05024 | 59.43624 | 36696 ft | 490 kts | 87° |
| 2026-05-04 11:02 | 23.05451 | 59.73231 | 36695 ft | 490 kts | 88° |
| 2026-05-04 11:05 | 22.98758 | 60.28225 | 36696 ft | 493 kts | 100° |
| 2026-05-04 11:06 | 22.97428 | 60.35482 | 36696 ft | 493 kts | 100° |
| 2026-05-04 11:06 | 22.96086 | 60.42788 | 36696 ft | 493 kts | 100° |
| 2026-05-04 11:10 | 22.86577 | 60.93766 | 36696 ft | 492 kts | 101° |
| 2026-05-04 11:12 | 22.81094 | 61.22846 | 36696 ft | 492 kts | 101° |
| 2026-05-04 11:12 | 22.79711 | 61.30137 | 36696 ft | 491 kts | 101° |
| 2026-05-04 11:13 | 22.78329 | 61.37408 | 36696 ft | 491 kts | 101° |
| 2026-05-04 11:13 | 22.76946 | 61.44659 | 36696 ft | 491 kts | 101° |
| 2026-05-04 11:14 | 22.75560 | 61.51914 | 36696 ft | 491 kts | 101° |
| 2026-05-04 11:16 | 22.70003 | 61.80863 | 36696 ft | 490 kts | 101° |
| 2026-05-04 11:16 | 22.68603 | 61.88108 | 36696 ft | 491 kts | 101° |
| 2026-05-04 11:17 | 22.67195 | 61.95365 | 36696 ft | 491 kts | 101° |
| 2026-05-04 11:19 | 22.61795 | 62.23025 | 36696 ft | 490 kts | 101° |
| 2026-05-04 11:19 | 22.60137 | 62.31469 | 36696 ft | 490 kts | 101° |
| 2026-05-04 11:20 | 22.58711 | 62.38706 | 36690 ft | 490 kts | 101° |
| 2026-05-04 11:20 | 22.57293 | 62.45892 | 36678 ft | 491 kts | 101° |
| 2026-05-04 11:22 | 22.51643 | 62.74372 | 36669 ft | 492 kts | 101° |
| 2026-05-04 11:23 | 22.50193 | 62.81644 | 36669 ft | 492 kts | 101° |
| 2026-05-04 11:25 | 22.45065 | 63.06970 | 36669 ft | 493 kts | 103° |
| 2026-05-04 11:25 | 22.42947 | 63.14079 | 36669 ft | 494 kts | 111° |
| 2026-05-04 11:27 | 22.29588 | 63.44172 | 36669 ft | 493 kts | 116° |
| 2026-05-04 11:28 | 22.26592 | 63.50834 | 36669 ft | 493 kts | 116° |
| 2026-05-04 11:28 | 22.23589 | 63.57510 | 36669 ft | 493 kts | 116° |
| 2026-05-04 11:29 | 22.20588 | 63.64167 | 36670 ft | 492 kts | 116° |
| 2026-05-04 11:29 | 22.17673 | 63.70648 | 36671 ft | 492 kts | 116° |
| 2026-05-04 11:33 | 21.96317 | 64.17756 | 36694 ft | 492 kts | 116° |
| 2026-05-04 11:34 | 21.87388 | 64.37260 | 36694 ft | 491 kts | 116° |
| 2026-05-04 11:35 | 21.84339 | 64.43863 | 36694 ft | 491 kts | 116° |
| 2026-05-04 11:35 | 21.81312 | 64.50448 | 36694 ft | 491 kts | 116° |
| 2026-05-04 11:36 | 21.78290 | 64.57026 | 36694 ft | 491 kts | 116° |
| 2026-05-04 11:36 | 21.75250 | 64.63641 | 36694 ft | 490 kts | 116° |
| 2026-05-04 11:37 | 21.72248 | 64.70184 | 36693 ft | 490 kts | 116° |
| 2026-05-04 11:37 | 21.69217 | 64.76788 | 36694 ft | 490 kts | 116° |
| 2026-05-04 11:38 | 21.66186 | 64.83369 | 36694 ft | 490 kts | 116° |
| 2026-05-04 11:38 | 21.63152 | 64.89938 | 36694 ft | 490 kts | 116° |
| 2026-05-04 11:39 | 21.60117 | 64.96499 | 36694 ft | 490 kts | 116° |
| 2026-05-04 11:41 | 21.49476 | 65.19440 | 36684 ft | 490 kts | 116° |
| 2026-05-04 11:41 | 21.46439 | 65.25969 | 36679 ft | 491 kts | 116° |
| 2026-05-04 11:42 | 21.43422 | 65.32446 | 36674 ft | 491 kts | 116° |
| 2026-05-04 11:42 | 21.40353 | 65.39030 | 36671 ft | 491 kts | 116° |
| 2026-05-04 11:43 | 21.37290 | 65.45588 | 36670 ft | 491 kts | 116° |
| 2026-05-04 11:43 | 21.34226 | 65.52143 | 36669 ft | 491 kts | 116° |
| 2026-05-04 11:44 | 21.31158 | 65.58699 | 36669 ft | 491 kts | 116° |
| 2026-05-04 11:44 | 21.28081 | 65.65266 | 36669 ft | 491 kts | 116° |
| 2026-05-04 11:45 | 21.25042 | 65.71770 | 36669 ft | 491 kts | 116° |
| 2026-05-04 11:45 | 21.21957 | 65.78352 | 36669 ft | 491 kts | 116° |
| 2026-05-04 11:46 | 21.18884 | 65.84888 | 36673 ft | 491 kts | 116° |
| 2026-05-04 11:46 | 21.15806 | 65.91421 | 36683 ft | 490 kts | 116° |
| 2026-05-04 11:47 | 21.12734 | 65.97934 | 36696 ft | 490 kts | 116° |
| 2026-05-04 11:47 | 21.09700 | 66.04477 | 36709 ft | 491 kts | 115° |
| 2026-05-04 11:48 | 21.06728 | 66.11053 | 36717 ft | 491 kts | 115° |
| 2026-05-04 11:48 | 21.03750 | 66.17628 | 36720 ft | 491 kts | 115° |
| 2026-05-04 11:49 | 21.00771 | 66.24181 | 36721 ft | 491 kts | 115° |
| 2026-05-04 11:49 | 20.97784 | 66.30737 | 36721 ft | 490 kts | 115° |
| 2026-05-04 11:50 | 20.94797 | 66.37284 | 36721 ft | 490 kts | 115° |
| 2026-05-04 11:50 | 20.91805 | 66.43832 | 36721 ft | 490 kts | 115° |
| 2026-05-04 11:51 | 20.88810 | 66.50365 | 36720 ft | 490 kts | 116° |
| 2026-05-04 11:51 | 20.85772 | 66.56929 | 36720 ft | 490 kts | 116° |
| 2026-05-04 11:52 | 20.82823 | 66.63484 | 36715 ft | 489 kts | 110° |
| 2026-05-04 11:52 | 20.81170 | 66.70526 | 36723 ft | 488 kts | 99° |
| 2026-05-04 11:53 | 20.79969 | 66.77679 | 36721 ft | 488 kts | 98° |
| 2026-05-04 11:53 | 20.78754 | 66.84774 | 36720 ft | 487 kts | 99° |
| 2026-05-04 11:55 | 20.73669 | 67.13303 | 36721 ft | 488 kts | 99° |
| 2026-05-04 11:56 | 20.72391 | 67.20398 | 36721 ft | 487 kts | 99° |
| 2026-05-04 11:56 | 20.71110 | 67.27492 | 36721 ft | 487 kts | 99° |
| 2026-05-04 11:57 | 20.69816 | 67.34640 | 36721 ft | 487 kts | 99° |
| 2026-05-04 11:57 | 20.68518 | 67.41795 | 36721 ft | 487 kts | 99° |
| 2026-05-04 11:58 | 20.67231 | 67.48872 | 36721 ft | 488 kts | 99° |
| 2026-05-04 11:58 | 20.65930 | 67.56008 | 36721 ft | 488 kts | 99° |
| 2026-05-04 11:59 | 20.64635 | 67.63090 | 36721 ft | 488 kts | 99° |
| 2026-05-04 11:59 | 20.63364 | 67.70042 | 36720 ft | 488 kts | 99° |
| 2026-05-04 12:00 | 20.62062 | 67.77157 | 36721 ft | 488 kts | 99° |
| 2026-05-04 12:00 | 20.60759 | 67.84241 | 36721 ft | 488 kts | 99° |
| 2026-05-04 12:01 | 20.59449 | 67.91342 | 36721 ft | 488 kts | 99° |
| 2026-05-04 12:02 | 20.54828 | 68.16241 | 36737 ft | 489 kts | 99° |
| 2026-05-04 12:03 | 20.53509 | 68.23318 | 36743 ft | 489 kts | 99° |
| 2026-05-04 12:03 | 20.52180 | 68.30425 | 36747 ft | 489 kts | 99° |
| 2026-05-04 12:04 | 20.50840 | 68.37575 | 36749 ft | 489 kts | 99° |
| 2026-05-04 12:04 | 20.49514 | 68.44636 | 36749 ft | 489 kts | 99° |
| 2026-05-04 12:05 | 20.48171 | 68.51766 | 36749 ft | 489 kts | 99° |
| 2026-05-04 12:05 | 20.46826 | 68.58889 | 36749 ft | 489 kts | 99° |
| 2026-05-04 12:06 | 20.45478 | 68.66018 | 36748 ft | 489 kts | 100° |
| 2026-05-04 12:06 | 20.44130 | 68.73154 | 36749 ft | 490 kts | 100° |
| 2026-05-04 12:07 | 20.42788 | 68.80235 | 36749 ft | 490 kts | 100° |
| 2026-05-04 12:07 | 20.41430 | 68.87369 | 36749 ft | 490 kts | 100° |
| 2026-05-04 12:08 | 20.40076 | 68.94466 | 36749 ft | 490 kts | 100° |
| 2026-05-04 12:08 | 20.38712 | 69.01591 | 36747 ft | 490 kts | 100° |
| 2026-05-04 12:09 | 20.37342 | 69.08731 | 36741 ft | 490 kts | 100° |
| 2026-05-04 12:09 | 20.35975 | 69.15842 | 36735 ft | 490 kts | 100° |
| 2026-05-04 12:10 | 20.34596 | 69.23005 | 36732 ft | 491 kts | 100° |
| 2026-05-04 12:10 | 20.33220 | 69.30127 | 36729 ft | 491 kts | 100° |
| 2026-05-04 12:11 | 20.31830 | 69.37305 | 36726 ft | 491 kts | 100° |
| 2026-05-04 12:11 | 20.30449 | 69.44428 | 36724 ft | 491 kts | 100° |
| 2026-05-04 12:12 | 20.29052 | 69.51608 | 36723 ft | 491 kts | 100° |
| 2026-05-04 12:12 | 20.27665 | 69.58727 | 36723 ft | 487 kts | 100° |
| 2026-05-04 12:14 | 20.22154 | 69.86893 | 36723 ft | 485 kts | 101° |
| 2026-05-04 12:15 | 20.20769 | 69.93925 | 36722 ft | 485 kts | 101° |
| 2026-05-04 12:15 | 20.19364 | 70.01036 | 36723 ft | 485 kts | 101° |
| 2026-05-04 12:16 | 20.17975 | 70.08056 | 36723 ft | 485 kts | 101° |
| 2026-05-04 12:16 | 20.16562 | 70.15177 | 36723 ft | 485 kts | 101° |
| 2026-05-04 12:17 | 20.15174 | 70.22158 | 36723 ft | 485 kts | 101° |
| 2026-05-04 12:17 | 20.13766 | 70.29223 | 36721 ft | 483 kts | 101° |
| 2026-05-04 12:18 | 20.12371 | 70.36212 | 36722 ft | 481 kts | 101° |
| 2026-05-04 12:18 | 20.10977 | 70.43180 | 36723 ft | 481 kts | 101° |
| 2026-05-04 12:19 | 20.09571 | 70.50191 | 36723 ft | 481 kts | 101° |
| 2026-05-04 12:19 | 20.08174 | 70.57139 | 36723 ft | 481 kts | 100° |
| 2026-05-04 12:20 | 20.06768 | 70.64123 | 36723 ft | 481 kts | 100° |
| 2026-05-04 12:20 | 20.05380 | 70.71022 | 36722 ft | 482 kts | 101° |
| 2026-05-04 12:21 | 20.03987 | 70.77930 | 36722 ft | 482 kts | 101° |
| 2026-05-04 12:21 | 20.02630 | 70.84631 | 36722 ft | 482 kts | 101° |
| 2026-05-04 12:22 | 20.01210 | 70.91622 | 36722 ft | 482 kts | 101° |
| 2026-05-04 12:22 | 19.99792 | 70.98592 | 36720 ft | 482 kts | 101° |
| 2026-05-04 12:23 | 19.99081 | 71.02091 | 36476 ft | 480 kts | 101° |
| 2026-05-04 12:23 | 19.98382 | 71.05512 | 36227 ft | 476 kts | 101° |
| 2026-05-04 12:23 | 19.97680 | 71.08942 | 35977 ft | 473 kts | 101° |
| 2026-05-04 12:23 | 19.96981 | 71.12357 | 35725 ft | 470 kts | 101° |
| 2026-05-04 12:24 | 19.96285 | 71.15750 | 35475 ft | 469 kts | 101° |
| 2026-05-04 12:24 | 19.95598 | 71.19103 | 35228 ft | 469 kts | 101° |
| 2026-05-04 12:24 | 19.94901 | 71.22501 | 34977 ft | 469 kts | 101° |
| 2026-05-04 12:24 | 19.94206 | 71.25889 | 34727 ft | 470 kts | 100° |
| 2026-05-04 12:25 | 19.93505 | 71.29302 | 34476 ft | 471 kts | 100° |
| 2026-05-04 12:25 | 19.92807 | 71.32697 | 34227 ft | 471 kts | 100° |
| 2026-05-04 12:25 | 19.92105 | 71.36106 | 33977 ft | 472 kts | 100° |
| 2026-05-04 12:25 | 19.91405 | 71.39499 | 33671 ft | 472 kts | 100° |
| 2026-05-04 12:26 | 19.90700 | 71.42915 | 33215 ft | 474 kts | 100° |
| 2026-05-04 12:26 | 19.89988 | 71.46355 | 32603 ft | 475 kts | 99° |
| 2026-05-04 12:26 | 19.89262 | 71.49810 | 31891 ft | 477 kts | 99° |
| 2026-05-04 12:26 | 19.88533 | 71.53252 | 31128 ft | 480 kts | 99° |
| 2026-05-04 12:27 | 19.87808 | 71.56689 | 30338 ft | 484 kts | 99° |
| 2026-05-04 12:27 | 19.87075 | 71.60188 | 29512 ft | 487 kts | 98° |
| 2026-05-04 12:27 | 19.86348 | 71.63702 | 28731 ft | 489 kts | 99° |
| 2026-05-04 12:27 | 19.85619 | 71.67234 | 27976 ft | 490 kts | 99° |
| 2026-05-04 12:28 | 19.84890 | 71.70766 | 27353 ft | 486 kts | 100° |
| 2026-05-04 12:28 | 19.84165 | 71.74260 | 26913 ft | 479 kts | 100° |
| 2026-05-04 12:28 | 19.83456 | 71.77663 | 26461 ft | 472 kts | 100° |
| 2026-05-04 12:28 | 19.82749 | 71.81057 | 25997 ft | 467 kts | 101° |
| 2026-05-04 12:29 | 19.82046 | 71.84423 | 25535 ft | 462 kts | 101° |
| 2026-05-04 12:29 | 19.81057 | 71.87669 | 25262 ft | 466 kts | 113° |
| 2026-05-04 12:29 | 19.79649 | 71.90736 | 25016 ft | 467 kts | 117° |
| 2026-05-04 12:29 | 19.78118 | 71.93783 | 24765 ft | 465 kts | 118° |
| 2026-05-04 12:30 | 19.76604 | 71.96801 | 24515 ft | 463 kts | 117° |
| 2026-05-04 12:30 | 19.75121 | 71.99824 | 24265 ft | 460 kts | 117° |
| 2026-05-04 12:30 | 19.73672 | 72.02839 | 24016 ft | 458 kts | 117° |
| 2026-05-04 12:30 | 19.72235 | 72.05867 | 23709 ft | 453 kts | 116° |
| 2026-05-04 12:31 | 19.70842 | 72.08827 | 23185 ft | 449 kts | 116° |
| 2026-05-04 12:31 | 19.69457 | 72.11783 | 22612 ft | 445 kts | 116° |
| 2026-05-04 12:31 | 19.68089 | 72.14709 | 22087 ft | 440 kts | 116° |
| 2026-05-04 12:31 | 19.66730 | 72.17615 | 21581 ft | 435 kts | 116° |
| 2026-05-04 12:32 | 19.65387 | 72.20490 | 21056 ft | 431 kts | 117° |
| 2026-05-04 12:32 | 19.62767 | 72.26093 | 20012 ft | 422 kts | 117° |
| 2026-05-04 12:32 | 19.61458 | 72.28893 | 19636 ft | 414 kts | 117° |
| 2026-05-04 12:33 | 19.60201 | 72.31580 | 19438 ft | 401 kts | 117° |
| 2026-05-04 12:33 | 19.58983 | 72.34183 | 19238 ft | 390 kts | 117° |
| 2026-05-04 12:33 | 19.57800 | 72.36710 | 19039 ft | 378 kts | 117° |
| 2026-05-04 12:33 | 19.56645 | 72.39175 | 18848 ft | 368 kts | 117° |
| 2026-05-04 12:34 | 19.55523 | 72.41570 | 18662 ft | 357 kts | 117° |
| 2026-05-04 12:34 | 19.54432 | 72.43898 | 18401 ft | 347 kts | 117° |
| 2026-05-04 12:34 | 19.53366 | 72.46169 | 18061 ft | 342 kts | 117° |
| 2026-05-04 12:34 | 19.52304 | 72.48434 | 17669 ft | 339 kts | 117° |
| 2026-05-04 12:35 | 19.51259 | 72.50658 | 17254 ft | 335 kts | 117° |
| 2026-05-04 12:35 | 19.50221 | 72.52863 | 16692 ft | 334 kts | 117° |
| 2026-05-04 12:35 | 19.49181 | 72.55075 | 16311 ft | 330 kts | 117° |
| 2026-05-04 12:35 | 19.48179 | 72.57206 | 16143 ft | 320 kts | 117° |
| 2026-05-04 12:36 | 19.47198 | 72.59294 | 15965 ft | 310 kts | 117° |
| 2026-05-04 12:36 | 19.46254 | 72.61303 | 15654 ft | 299 kts | 117° |
| 2026-05-04 12:36 | 19.45330 | 72.63265 | 14997 ft | 297 kts | 117° |
| 2026-05-04 12:36 | 19.44417 | 72.65205 | 14338 ft | 296 kts | 117° |
| 2026-05-04 12:37 | 19.43511 | 72.67136 | 13711 ft | 292 kts | 116° |
| 2026-05-04 12:37 | 19.42607 | 72.69067 | 13078 ft | 290 kts | 116° |
| 2026-05-04 12:37 | 19.41719 | 72.70962 | 12454 ft | 287 kts | 116° |
| 2026-05-04 12:37 | 19.40843 | 72.72824 | 11843 ft | 284 kts | 116° |
| 2026-05-04 12:38 | 19.39971 | 72.74680 | 11215 ft | 282 kts | 116° |
| 2026-05-04 12:38 | 19.39096 | 72.76543 | 10561 ft | 281 kts | 117° |
| 2026-05-04 12:38 | 19.38229 | 72.78385 | 9912 ft | 280 kts | 117° |
| 2026-05-04 12:38 | 19.37356 | 72.80238 | 9255 ft | 280 kts | 117° |
| 2026-05-04 12:39 | 19.36489 | 72.82076 | 8604 ft | 279 kts | 118° |
| 2026-05-04 12:39 | 19.35614 | 72.83894 | 7977 ft | 278 kts | 119° |
| 2026-05-04 12:39 | 19.34704 | 72.85697 | 7361 ft | 276 kts | 120° |
| 2026-05-04 12:39 | 19.33801 | 72.87469 | 6754 ft | 274 kts | 120° |
| 2026-05-04 12:40 | 19.32907 | 72.89226 | 6153 ft | 272 kts | 120° |
| 2026-05-04 12:40 | 19.32009 | 72.90994 | 5546 ft | 271 kts | 120° |
| 2026-05-04 12:40 | 19.31113 | 72.92769 | 5087 ft | 272 kts | 120° |
| 2026-05-04 12:40 | 19.30238 | 72.94511 | 4784 ft | 268 kts | 120° |
| 2026-05-04 12:41 | 19.29358 | 72.96265 | 4449 ft | 265 kts | 120° |
| 2026-05-04 12:41 | 19.28494 | 72.97992 | 4099 ft | 264 kts | 120° |
| 2026-05-04 12:41 | 19.27477 | 72.99558 | 3824 ft | 257 kts | 137° |
| 2026-05-04 12:41 | 19.26153 | 73.00822 | 3789 ft | 251 kts | 143° |
| 2026-05-04 12:42 | 19.24835 | 73.01958 | 3781 ft | 237 kts | 144° |
| 2026-05-04 12:42 | 19.23540 | 73.03054 | 3787 ft | 236 kts | 145° |
| 2026-05-04 12:42 | 19.22263 | 73.04131 | 3789 ft | 237 kts | 145° |
| 2026-05-04 12:42 | 19.20966 | 73.05222 | 3792 ft | 237 kts | 145° |
| 2026-05-04 12:43 | 19.19670 | 73.06313 | 3793 ft | 237 kts | 145° |
| 2026-05-04 12:43 | 19.18388 | 73.07392 | 3786 ft | 229 kts | 145° |
| 2026-05-04 12:43 | 19.17215 | 73.08391 | 3877 ft | 208 kts | 145° |
| 2026-05-04 12:43 | 19.16100 | 73.09347 | 3832 ft | 205 kts | 145° |
| 2026-05-04 12:44 | 19.14977 | 73.10304 | 3813 ft | 204 kts | 148° |
| 2026-05-04 12:44 | 19.13716 | 73.10845 | 3740 ft | 193 kts | 181° |
| 2026-05-04 12:44 | 19.12485 | 73.10510 | 3397 ft | 181 kts | 219° |
| 2026-05-04 12:44 | 19.11642 | 73.09534 | 3010 ft | 177 kts | 237° |
| 2026-05-04 12:45 | 19.10968 | 73.08445 | 2920 ft | 178 kts | 240° |
| 2026-05-04 12:45 | 19.10317 | 73.07333 | 2911 ft | 179 kts | 240° |
| 2026-05-04 12:45 | 19.09690 | 73.06183 | 2904 ft | 178 kts | 247° |
| 2026-05-04 12:45 | 19.09321 | 73.04930 | 2901 ft | 177 kts | 259° |
| 2026-05-04 12:46 | 19.09164 | 73.03638 | 2897 ft | 178 kts | 265° |
| 2026-05-04 12:46 | 19.09107 | 73.02334 | 2759 ft | 178 kts | 268° |
| 2026-05-04 12:46 | 19.09083 | 73.01010 | 2518 ft | 178 kts | 268° |
| 2026-05-04 12:46 | 19.09066 | 72.99748 | 2321 ft | 164 kts | 268° |
| 2026-05-04 12:47 | 19.09049 | 72.98563 | 2088 ft | 155 kts | 268° |
| 2026-05-04 12:47 | 19.09032 | 72.97425 | 1877 ft | 153 kts | 268° |
| 2026-05-04 12:47 | 19.09015 | 72.96354 | 1651 ft | 141 kts | 267° |
| 2026-05-04 12:47 | 19.08999 | 72.95314 | 1462 ft | 139 kts | 266° |
| 2026-05-04 12:48 | 19.08983 | 72.94291 | 1278 ft | 139 kts | 266° |
| 2026-05-04 12:48 | 19.08967 | 72.93257 | 1098 ft | 140 kts | 266° |
| 2026-05-04 12:48 | 19.08952 | 72.92229 | 917 ft | 140 kts | 266° |
| 2026-05-04 12:48 | 19.08938 | 72.91188 | 735 ft | 139 kts | 266° |
| 2026-05-04 12:49 | 19.08923 | 72.90177 | 552 ft | 137 kts | 265° |
| 2026-05-04 12:49 | 19.08901 | 72.89166 | 359 ft | 137 kts | 267° |
| 2026-05-04 12:49 | 19.08894 | 72.88160 | 178 ft | 136 kts | 266° |
| 2026-05-04 12:49 | 19.08866 | 72.87161 | 50 ft | 135 kts | 265° |
| 2026-05-04 12:50 | 19.08862 | 72.86285 | 46 ft | 94 kts | 270° |
| 2026-05-04 12:50 | 19.08857 | 72.85777 | 46 ft | 44 kts | 275° |
| 2026-05-04 12:50 | 19.08930 | 72.85535 | 46 ft | 20 kts | 293° |
| 2026-05-04 12:50 | 19.09020 | 72.85532 | 46 ft | 18 kts | 84° |
| 2026-05-04 12:51 | 19.09027 | 72.85670 | 46 ft | 18 kts | 91° |
| 2026-05-04 12:51 | 19.09028 | 72.85789 | 46 ft | 12 kts | 89° |
| 2026-05-04 12:51 | 19.09030 | 72.85890 | 46 ft | 14 kts | 89° |
| 2026-05-04 12:51 | 19.09031 | 72.85999 | 46 ft | 15 kts | 89° |
| 2026-05-04 12:52 | 19.09033 | 72.86114 | 46 ft | 16 kts | 89° |
| 2026-05-04 12:52 | 19.09034 | 72.86237 | 46 ft | 17 kts | 90° |
| 2026-05-04 12:52 | 19.09036 | 72.86367 | 46 ft | 17 kts | 89° |
| 2026-05-04 12:52 | 19.09037 | 72.86418 | 46 ft | 1 kts | 89° |
| 2026-05-04 12:53 | 19.09038 | 72.86434 | 46 ft | 3 kts | 89° |
| 2026-05-04 12:53 | 19.09038 | 72.86466 | 46 ft | 5 kts | 89° |
| 2026-05-04 12:53 | 19.09038 | 72.86527 | 46 ft | 12 kts | 91° |
| 2026-05-04 12:53 | 19.09040 | 72.86623 | 46 ft | 13 kts | 88° |
| 2026-05-04 12:54 | 19.09041 | 72.86729 | 46 ft | 14 kts | 90° |
| 2026-05-04 12:54 | 19.09042 | 72.86841 | 46 ft | 15 kts | 89° |
| 2026-05-04 12:54 | 19.09044 | 72.86961 | 46 ft | 16 kts | 89° |
| 2026-05-04 12:54 | 19.09046 | 72.87085 | 46 ft | 17 kts | 89° |
| 2026-05-04 12:55 | 19.09047 | 72.87190 | 46 ft | 10 kts | 88° |
| 2026-05-04 12:55 | 19.09084 | 72.87258 | 46 ft | 11 kts | 26° |
| 2026-05-04 12:55 | 19.09168 | 72.87265 | 46 ft | 12 kts | 357° |
| 2026-05-04 12:55 | 19.09257 | 72.87237 | 46 ft | 13 kts | 341° |
| 2026-05-04 12:56 | 19.09316 | 72.87215 | 46 ft | 4 kts | 341° |
| 2026-05-04 12:56 | 19.09335 | 72.87209 | 46 ft | 0 kts | 340° |
| 2026-05-04 12:56 | 19.09336 | 72.87209 | 46 ft | 0 kts | 340° |